sensor_id;sensor_type;location;lat;lon;timestamp;P1;durP1;ratioP1;P2;durP2;ratioP2
46339;SDS011;47273;49.274;8.708;2022-10-23T04:02:32;24.38;;;22.45;;
46339;SDS011;47273;49.274;8.708;2022-10-23T04:04:58;24.15;;;22.35;;
46339;SDS011;47273;49.274;8.708;2022-10-23T04:07:23;27.15;;;23.55;;
46339;SDS011;47273;49.274;8.708;2022-10-23T04:09:49;25.42;;;23.33;;
46339;SDS011;47273;49.274;8.708;2022-10-23T04:12:15;24.98;;;22.98;;
46339;SDS011;47273;49.274;8.708;2022-10-23T04:14:41;25.02;;;23.02;;
46339;SDS011;47273;49.274;8.708;2022-10-23T04:17:06;30.17;;;23.17;;
46339;SDS011;47273;49.274;8.708;2022-10-23T04:19:32;25.70;;;23.48;;
46339;SDS011;47273;49.274;8.708;2022-10-23T04:21:58;25.40;;;23.20;;
46339;SDS011;47273;49.274;8.708;2022-10-23T04:24:24;25.52;;;23.08;;
46339;SDS011;47273;49.274;8.708;2022-10-23T04:26:50;25.05;;;23.02;;
46339;SDS011;47273;49.274;8.708;2022-10-23T04:29:16;25.45;;;23.25;;
46339;SDS011;47273;49.274;8.708;2022-10-23T04:31:42;26.48;;;22.70;;
46339;SDS011;47273;49.274;8.708;2022-10-23T04:34:08;25.50;;;22.67;;
46339;SDS011;47273;49.274;8.708;2022-10-23T04:36:33;25.13;;;22.70;;
46339;SDS011;47273;49.274;8.708;2022-10-23T04:38:59;25.83;;;23.42;;
46339;SDS011;47273;49.274;8.708;2022-10-23T04:41:25;25.45;;;23.23;;
46339;SDS011;47273;49.274;8.708;2022-10-23T04:43:51;25.48;;;23.17;;
46339;SDS011;47273;49.274;8.708;2022-10-23T04:46:16;25.83;;;23.50;;
46339;SDS011;47273;49.274;8.708;2022-10-23T04:48:42;25.88;;;23.30;;
46339;SDS011;47273;49.274;8.708;2022-10-23T04:51:08;25.45;;;23.08;;
46339;SDS011;47273;49.274;8.708;2022-10-23T04:53:34;26.52;;;23.67;;
46339;SDS011;47273;49.274;8.708;2022-10-23T04:56:00;26.13;;;23.52;;
46339;SDS011;47273;49.274;8.708;2022-10-23T04:58:26;25.92;;;23.58;;
46339;SDS011;47273;49.274;8.708;2022-10-23T05:00:53;27.92;;;23.55;;
46339;SDS011;47273;49.274;8.708;2022-10-23T05:03:20;27.08;;;24.20;;
46339;SDS011;47273;49.274;8.708;2022-10-23T05:05:46;27.05;;;24.48;;
46339;SDS011;47273;49.274;8.708;2022-10-23T05:08:12;26.48;;;24.02;;
46339;SDS011;47273;49.274;8.708;2022-10-23T05:10:38;26.00;;;23.67;;
46339;SDS011;47273;49.274;8.708;2022-10-23T05:13:05;27.33;;;24.30;;
46339;SDS011;47273;49.274;8.708;2022-10-23T05:15:31;25.92;;;23.60;;
46339;SDS011;47273;49.274;8.708;2022-10-23T05:17:59;26.63;;;23.90;;
46339;SDS011;47273;49.274;8.708;2022-10-23T05:20:41;25.98;;;23.65;;
46339;SDS011;47273;49.274;8.708;2022-10-23T05:23:08;26.20;;;23.80;;
46339;SDS011;47273;49.274;8.708;2022-10-23T05:25:35;27.25;;;24.48;;
46339;SDS011;47273;49.274;8.708;2022-10-23T05:28:01;25.95;;;23.65;;
46339;SDS011;47273;49.274;8.708;2022-10-23T05:30:30;26.20;;;23.83;;
46339;SDS011;47273;49.274;8.708;2022-10-23T05:32:58;26.13;;;23.73;;
46339;SDS011;47273;49.274;8.708;2022-10-23T05:35:25;26.40;;;24.05;;
46339;SDS011;47273;49.274;8.708;2022-10-23T05:37:51;26.77;;;24.38;;
46339;SDS011;47273;49.274;8.708;2022-10-23T05:40:18;27.25;;;24.65;;
46339;SDS011;47273;49.274;8.708;2022-10-23T05:42:44;27.30;;;24.77;;
46339;SDS011;47273;49.274;8.708;2022-10-23T05:45:10;26.38;;;23.95;;
46339;SDS011;47273;49.274;8.708;2022-10-23T05:47:36;25.65;;;23.45;;
46339;SDS011;47273;49.274;8.708;2022-10-23T05:50:01;25.25;;;23.05;;
46339;SDS011;47273;49.274;8.708;2022-10-23T05:52:27;25.52;;;23.23;;
46339;SDS011;47273;49.274;8.708;2022-10-23T05:54:53;25.50;;;23.25;;
46339;SDS011;47273;49.274;8.708;2022-10-23T05:57:18;25.30;;;23.10;;
46339;SDS011;47273;49.274;8.708;2022-10-23T05:59:44;25.08;;;23.10;;
46339;SDS011;47273;49.274;8.708;2022-10-23T06:02:10;26.40;;;23.67;;
46339;SDS011;47273;49.274;8.708;2022-10-23T06:04:35;26.48;;;24.27;;
46339;SDS011;47273;49.274;8.708;2022-10-23T06:07:01;26.15;;;23.70;;
46339;SDS011;47273;49.274;8.708;2022-10-23T06:09:28;26.55;;;24.23;;
46339;SDS011;47273;49.274;8.708;2022-10-23T06:11:54;25.48;;;23.40;;
46339;SDS011;47273;49.274;8.708;2022-10-23T06:14:20;24.92;;;22.77;;
46339;SDS011;47273;49.274;8.708;2022-10-23T06:16:46;24.73;;;22.40;;
46339;SDS011;47273;49.274;8.708;2022-10-23T06:19:12;24.98;;;22.75;;
46339;SDS011;47273;49.274;8.708;2022-10-23T06:21:38;25.33;;;23.30;;
46339;SDS011;47273;49.274;8.708;2022-10-23T06:24:06;26.30;;;24.02;;
46339;SDS011;47273;49.274;8.708;2022-10-23T06:26:42;26.08;;;23.85;;
46339;SDS011;47273;49.274;8.708;2022-10-23T06:29:08;25.58;;;23.13;;
46339;SDS011;47273;49.274;8.708;2022-10-23T06:31:34;25.48;;;23.20;;
46339;SDS011;47273;49.274;8.708;2022-10-23T06:34:00;25.25;;;23.13;;
46339;SDS011;47273;49.274;8.708;2022-10-23T06:36:26;25.80;;;23.35;;
46339;SDS011;47273;49.274;8.708;2022-10-23T06:38:51;25.80;;;23.65;;
46339;SDS011;47273;49.274;8.708;2022-10-23T06:41:18;26.10;;;22.88;;
46339;SDS011;47273;49.274;8.708;2022-10-23T06:43:48;26.25;;;23.58;;
46339;SDS011;47273;49.274;8.708;2022-10-23T06:46:15;24.88;;;22.88;;
46339;SDS011;47273;49.274;8.708;2022-10-23T06:48:42;25.17;;;22.83;;
46339;SDS011;47273;49.274;8.708;2022-10-23T06:51:09;25.60;;;23.40;;
46339;SDS011;47273;49.274;8.708;2022-10-23T06:53:37;26.13;;;23.70;;
46339;SDS011;47273;49.274;8.708;2022-10-23T06:56:03;26.38;;;23.58;;
46339;SDS011;47273;49.274;8.708;2022-10-23T06:58:30;26.20;;;24.00;;
46339;SDS011;47273;49.274;8.708;2022-10-23T07:01:01;24.20;;;21.90;;
46339;SDS011;47273;49.274;8.708;2022-10-23T07:03:29;24.63;;;22.35;;
46339;SDS011;47273;49.274;8.708;2022-10-23T07:05:58;24.73;;;22.63;;
46339;SDS011;47273;49.274;8.708;2022-10-23T07:08:25;24.38;;;22.23;;
46339;SDS011;47273;49.274;8.708;2022-10-23T07:10:50;24.10;;;21.83;;
46339;SDS011;47273;49.274;8.708;2022-10-23T07:13:16;23.52;;;21.73;;
46339;SDS011;47273;49.274;8.708;2022-10-23T07:15:42;23.63;;;21.40;;
46339;SDS011;47273;49.274;8.708;2022-10-23T07:18:08;24.27;;;22.33;;
46339;SDS011;47273;49.274;8.708;2022-10-23T07:20:39;24.95;;;22.20;;
46339;SDS011;47273;49.274;8.708;2022-10-23T07:23:05;25.65;;;23.17;;
46339;SDS011;47273;49.274;8.708;2022-10-23T07:25:31;26.13;;;23.35;;
46339;SDS011;47273;49.274;8.708;2022-10-23T07:27:57;25.65;;;23.40;;
46339;SDS011;47273;49.274;8.708;2022-10-23T07:30:23;26.25;;;23.83;;
46339;SDS011;47273;49.274;8.708;2022-10-23T07:32:49;23.27;;;21.38;;
46339;SDS011;47273;49.274;8.708;2022-10-23T07:35:16;25.45;;;23.40;;
46339;SDS011;47273;49.274;8.708;2022-10-23T07:37:42;25.27;;;23.02;;
46339;SDS011;47273;49.274;8.708;2022-10-23T07:40:07;24.23;;;22.30;;
46339;SDS011;47273;49.274;8.708;2022-10-23T07:42:33;24.63;;;22.10;;
46339;SDS011;47273;49.274;8.708;2022-10-23T07:44:59;24.98;;;22.90;;
46339;SDS011;47273;49.274;8.708;2022-10-23T07:47:25;24.08;;;22.23;;
46339;SDS011;47273;49.274;8.708;2022-10-23T07:49:51;23.58;;;21.45;;
46339;SDS011;47273;49.274;8.708;2022-10-23T07:52:17;24.17;;;21.88;;
46339;SDS011;47273;49.274;8.708;2022-10-23T07:54:42;24.83;;;22.50;;
46339;SDS011;47273;49.274;8.708;2022-10-23T07:57:09;24.52;;;22.25;;
46339;SDS011;47273;49.274;8.708;2022-10-23T07:59:36;26.33;;;23.92;;
46339;SDS011;47273;49.274;8.708;2022-10-23T08:02:02;26.58;;;24.02;;
46339;SDS011;47273;49.274;8.708;2022-10-23T08:04:27;25.65;;;23.48;;
46339;SDS011;47273;49.274;8.708;2022-10-23T08:06:53;25.67;;;23.65;;
46339;SDS011;47273;49.274;8.708;2022-10-23T08:09:20;24.88;;;22.80;;
46339;SDS011;47273;49.274;8.708;2022-10-23T08:11:46;25.40;;;23.30;;
46339;SDS011;47273;49.274;8.708;2022-10-23T08:14:12;25.35;;;23.25;;
46339;SDS011;47273;49.274;8.708;2022-10-23T08:16:38;25.70;;;23.50;;
46339;SDS011;47273;49.274;8.708;2022-10-23T08:19:04;26.15;;;23.85;;
46339;SDS011;47273;49.274;8.708;2022-10-23T08:21:31;26.10;;;23.67;;
46339;SDS011;47273;49.274;8.708;2022-10-23T08:23:58;25.90;;;23.40;;
46339;SDS011;47273;49.274;8.708;2022-10-23T08:26:24;25.95;;;23.83;;
46339;SDS011;47273;49.274;8.708;2022-10-23T08:28:53;26.02;;;23.77;;
46339;SDS011;47273;49.274;8.708;2022-10-23T08:31:20;25.48;;;23.27;;
46339;SDS011;47273;49.274;8.708;2022-10-23T08:33:52;25.63;;;23.63;;
46339;SDS011;47273;49.274;8.708;2022-10-23T08:36:20;24.83;;;22.80;;
46339;SDS011;47273;49.274;8.708;2022-10-23T08:38:48;25.60;;;23.40;;
46339;SDS011;47273;49.274;8.708;2022-10-23T08:41:27;26.05;;;23.58;;
46339;SDS011;47273;49.274;8.708;2022-10-23T08:44:10;24.92;;;23.02;;
46339;SDS011;47273;49.274;8.708;2022-10-23T08:52:19;25.83;;;23.83;;
46339;SDS011;47273;49.274;8.708;2022-10-23T08:55:04;25.42;;;23.23;;
46339;SDS011;47273;49.274;8.708;2022-10-23T08:57:37;25.25;;;23.25;;
46339;SDS011;47273;49.274;8.708;2022-10-23T09:00:10;26.05;;;23.95;;
46339;SDS011;47273;49.274;8.708;2022-10-23T09:02:42;25.35;;;23.25;;
46339;SDS011;47273;49.274;8.708;2022-10-23T09:05:13;26.13;;;23.80;;
46339;SDS011;47273;49.274;8.708;2022-10-23T09:10:57;27.30;;;24.77;;
46339;SDS011;47273;49.274;8.708;2022-10-23T09:18:48;26.38;;;24.08;;
46339;SDS011;47273;49.274;8.708;2022-10-23T09:21:14;26.92;;;24.30;;
46339;SDS011;47273;49.274;8.708;2022-10-23T09:23:40;25.70;;;23.58;;
46339;SDS011;47273;49.274;8.708;2022-10-23T09:26:11;26.30;;;24.23;;
46339;SDS011;47273;49.274;8.708;2022-10-23T09:28:48;27.10;;;24.85;;
46339;SDS011;47273;49.274;8.708;2022-10-23T09:31:21;26.10;;;24.00;;
46339;SDS011;47273;49.274;8.708;2022-10-23T09:34:21;25.73;;;23.83;;
46339;SDS011;47273;49.274;8.708;2022-10-23T09:36:47;25.70;;;23.40;;
46339;SDS011;47273;49.274;8.708;2022-10-23T09:39:48;25.42;;;23.42;;
46339;SDS011;47273;49.274;8.708;2022-10-23T09:42:23;25.92;;;23.83;;
46339;SDS011;47273;49.274;8.708;2022-10-23T09:44:51;25.85;;;23.48;;
46339;SDS011;47273;49.274;8.708;2022-10-23T09:47:18;26.52;;;24.23;;
46339;SDS011;47273;49.274;8.708;2022-10-23T09:49:47;26.83;;;24.80;;
46339;SDS011;47273;49.274;8.708;2022-10-23T09:59:49;26.17;;;23.52;;
46339;SDS011;47273;49.274;8.708;2022-10-23T10:04:55;25.73;;;23.35;;
46339;SDS011;47273;49.274;8.708;2022-10-23T10:07:22;25.92;;;23.73;;
46339;SDS011;47273;49.274;8.708;2022-10-23T10:09:51;25.75;;;23.55;;
46339;SDS011;47273;49.274;8.708;2022-10-23T10:15:23;25.48;;;23.17;;
46339;SDS011;47273;49.274;8.708;2022-10-23T10:22:57;26.48;;;23.33;;
46339;SDS011;47273;49.274;8.708;2022-10-23T10:28:51;25.20;;;23.05;;
46339;SDS011;47273;49.274;8.708;2022-10-23T10:33:54;24.85;;;22.70;;
46339;SDS011;47273;49.274;8.708;2022-10-23T10:39:23;25.50;;;23.20;;
46339;SDS011;47273;49.274;8.708;2022-10-23T10:50:49;25.20;;;23.30;;
46339;SDS011;47273;49.274;8.708;2022-10-23T10:56:15;25.95;;;23.95;;
46339;SDS011;47273;49.274;8.708;2022-10-23T11:01:27;24.90;;;22.90;;
46339;SDS011;47273;49.274;8.708;2022-10-23T11:06:47;25.45;;;23.50;;
46339;SDS011;47273;49.274;8.708;2022-10-23T11:09:18;27.25;;;24.85;;
46339;SDS011;47273;49.274;8.708;2022-10-23T11:11:45;27.17;;;25.02;;
46339;SDS011;47273;49.274;8.708;2022-10-23T11:14:20;26.27;;;23.98;;
46339;SDS011;47273;49.274;8.708;2022-10-23T11:16:51;26.17;;;23.97;;
46339;SDS011;47273;49.274;8.708;2022-10-23T11:20:09;26.20;;;23.90;;
46339;SDS011;47273;49.274;8.708;2022-10-23T11:22:49;26.25;;;24.10;;
46339;SDS011;47273;49.274;8.708;2022-10-23T11:26:06;26.77;;;24.58;;
46339;SDS011;47273;49.274;8.708;2022-10-23T11:28:22;26.38;;;23.95;;
46339;SDS011;47273;49.274;8.708;2022-10-23T11:34:38;25.77;;;23.67;;
46339;SDS011;47273;49.274;8.708;2022-10-23T11:37:15;24.73;;;22.83;;
46339;SDS011;47273;49.274;8.708;2022-10-23T11:39:52;25.02;;;23.13;;
46339;SDS011;47273;49.274;8.708;2022-10-23T11:48:04;26.27;;;24.38;;
46339;SDS011;47273;49.274;8.708;2022-10-23T11:58:51;25.58;;;23.67;;
46339;SDS011;47273;49.274;8.708;2022-10-23T12:01:36;25.35;;;23.35;;
46339;SDS011;47273;49.274;8.708;2022-10-23T12:15:08;25.42;;;23.33;;
46339;SDS011;47273;49.274;8.708;2022-10-23T12:17:40;25.25;;;23.25;;
46339;SDS011;47273;49.274;8.708;2022-10-23T12:27:59;25.40;;;23.42;;
46339;SDS011;47273;49.274;8.708;2022-10-23T12:30:30;25.77;;;23.77;;
46339;SDS011;47273;49.274;8.708;2022-10-23T12:38:27;25.52;;;23.52;;
46339;SDS011;47273;49.274;8.708;2022-10-23T12:41:00;26.67;;;24.58;;
46339;SDS011;47273;49.274;8.708;2022-10-23T12:44:06;25.70;;;23.58;;
46339;SDS011;47273;49.274;8.708;2022-10-23T12:46:56;26.48;;;24.15;;
46339;SDS011;47273;49.274;8.708;2022-10-23T12:49:24;26.13;;;24.13;;
46339;SDS011;47273;49.274;8.708;2022-10-23T12:54:22;25.52;;;23.52;;
46339;SDS011;47273;49.274;8.708;2022-10-23T12:56:48;25.08;;;23.17;;
46339;SDS011;47273;49.274;8.708;2022-10-23T12:59:15;26.42;;;24.33;;
46339;SDS011;47273;49.274;8.708;2022-10-23T13:02:01;25.52;;;23.30;;
46339;SDS011;47273;49.274;8.708;2022-10-23T13:04:48;25.38;;;23.38;;
46339;SDS011;47273;49.274;8.708;2022-10-23T13:07:20;25.60;;;23.40;;
46339;SDS011;47273;49.274;8.708;2022-10-23T13:09:50;25.30;;;23.30;;
46339;SDS011;47273;49.274;8.708;2022-10-23T13:12:24;25.13;;;22.92;;
46339;SDS011;47273;49.274;8.708;2022-10-23T13:15:00;25.17;;;23.27;;
46339;SDS011;47273;49.274;8.708;2022-10-23T13:17:59;26.58;;;24.55;;
46339;SDS011;47273;49.274;8.708;2022-10-23T13:20:27;26.80;;;24.70;;
46339;SDS011;47273;49.274;8.708;2022-10-23T13:25:31;25.73;;;23.70;;
46339;SDS011;47273;49.274;8.708;2022-10-23T13:30:38;25.90;;;23.35;;
46339;SDS011;47273;49.274;8.708;2022-10-23T13:35:56;25.02;;;23.08;;
46339;SDS011;47273;49.274;8.708;2022-10-23T13:38:35;24.60;;;22.60;;
46339;SDS011;47273;49.274;8.708;2022-10-23T13:41:03;24.70;;;22.80;;
46339;SDS011;47273;49.274;8.708;2022-10-23T13:43:33;24.98;;;22.98;;
46339;SDS011;47273;49.274;8.708;2022-10-23T13:45:59;24.30;;;22.20;;
46339;SDS011;47273;49.274;8.708;2022-10-23T13:48:26;25.27;;;23.38;;
46339;SDS011;47273;49.274;8.708;2022-10-23T13:50:53;24.95;;;22.80;;
46339;SDS011;47273;49.274;8.708;2022-10-23T13:53:25;24.55;;;22.52;;
46339;SDS011;47273;49.274;8.708;2022-10-23T13:55:51;26.95;;;23.95;;
46339;SDS011;47273;49.274;8.708;2022-10-23T13:58:20;25.42;;;23.42;;
46339;SDS011;47273;49.274;8.708;2022-10-23T14:00:46;25.95;;;23.40;;
46339;SDS011;47273;49.274;8.708;2022-10-23T14:03:14;25.42;;;23.23;;
46339;SDS011;47273;49.274;8.708;2022-10-23T14:05:41;26.00;;;23.80;;
46339;SDS011;47273;49.274;8.708;2022-10-23T14:08:07;25.50;;;23.38;;
46339;SDS011;47273;49.274;8.708;2022-10-23T14:10:32;25.92;;;23.92;;
46339;SDS011;47273;49.274;8.708;2022-10-23T14:12:59;26.27;;;24.27;;
46339;SDS011;47273;49.274;8.708;2022-10-23T14:15:24;25.92;;;24.02;;
46339;SDS011;47273;49.274;8.708;2022-10-23T14:17:50;26.20;;;23.65;;
46339;SDS011;47273;49.274;8.708;2022-10-23T14:20:16;25.33;;;23.42;;
46339;SDS011;47273;49.274;8.708;2022-10-23T14:22:41;26.15;;;23.95;;
46339;SDS011;47273;49.274;8.708;2022-10-23T14:25:07;25.77;;;23.48;;
46339;SDS011;47273;49.274;8.708;2022-10-23T14:27:33;26.08;;;23.85;;
46339;SDS011;47273;49.274;8.708;2022-10-23T14:29:58;25.98;;;23.98;;
46339;SDS011;47273;49.274;8.708;2022-10-23T14:32:24;25.10;;;23.20;;
46339;SDS011;47273;49.274;8.708;2022-10-23T14:34:53;25.02;;;22.90;;
46339;SDS011;47273;49.274;8.708;2022-10-23T14:37:19;25.75;;;23.48;;
46339;SDS011;47273;49.274;8.708;2022-10-23T14:39:45;25.25;;;23.25;;
46339;SDS011;47273;49.274;8.708;2022-10-23T14:42:12;25.95;;;24.05;;
46339;SDS011;47273;49.274;8.708;2022-10-23T14:44:38;26.08;;;23.92;;
46339;SDS011;47273;49.274;8.708;2022-10-23T14:47:04;25.70;;;23.70;;
46339;SDS011;47273;49.274;8.708;2022-10-23T14:49:30;26.20;;;23.88;;
46339;SDS011;47273;49.274;8.708;2022-10-23T14:51:56;25.08;;;23.17;;
46339;SDS011;47273;49.274;8.708;2022-10-23T14:54:22;24.67;;;22.77;;
46339;SDS011;47273;49.274;8.708;2022-10-23T14:56:47;25.60;;;23.15;;
46339;SDS011;47273;49.274;8.708;2022-10-23T14:59:13;25.42;;;23.33;;
46339;SDS011;47273;49.274;8.708;2022-10-23T15:01:40;24.95;;;22.98;;
46339;SDS011;47273;49.274;8.708;2022-10-23T15:04:06;24.90;;;22.65;;
46339;SDS011;47273;49.274;8.708;2022-10-23T15:06:33;25.38;;;23.38;;
46339;SDS011;47273;49.274;8.708;2022-10-23T15:09:00;24.58;;;22.58;;
46339;SDS011;47273;49.274;8.708;2022-10-23T15:11:26;25.20;;;22.80;;
46339;SDS011;47273;49.274;8.708;2022-10-23T15:13:53;23.10;;;21.33;;
46339;SDS011;47273;49.274;8.708;2022-10-23T15:16:19;23.52;;;21.52;;
46339;SDS011;47273;49.274;8.708;2022-10-23T15:18:46;23.45;;;21.38;;
46339;SDS011;47273;49.274;8.708;2022-10-23T15:21:12;25.38;;;23.20;;
46339;SDS011;47273;49.274;8.708;2022-10-23T15:23:39;24.45;;;22.55;;
46339;SDS011;47273;49.274;8.708;2022-10-23T15:26:08;24.63;;;22.70;;
46339;SDS011;47273;49.274;8.708;2022-10-23T15:28:36;24.48;;;22.52;;
46339;SDS011;47273;49.274;8.708;2022-10-23T15:31:02;24.60;;;22.73;;
46339;SDS011;47273;49.274;8.708;2022-10-23T15:33:28;23.90;;;21.88;;
46339;SDS011;47273;49.274;8.708;2022-10-23T15:35:54;24.17;;;22.27;;
46339;SDS011;47273;49.274;8.708;2022-10-23T15:38:20;23.63;;;21.73;;
46339;SDS011;47273;49.274;8.708;2022-10-23T15:40:46;23.70;;;21.80;;
46339;SDS011;47273;49.274;8.708;2022-10-23T15:43:13;24.08;;;22.08;;
46339;SDS011;47273;49.274;8.708;2022-10-23T15:45:39;24.55;;;22.60;;
46339;SDS011;47273;49.274;8.708;2022-10-23T15:48:06;23.60;;;21.80;;
46339;SDS011;47273;49.274;8.708;2022-10-23T15:50:32;24.00;;;21.83;;
46339;SDS011;47273;49.274;8.708;2022-10-23T15:52:59;22.98;;;21.23;;
46339;SDS011;47273;49.274;8.708;2022-10-23T15:55:24;23.38;;;21.58;;
46339;SDS011;47273;49.274;8.708;2022-10-23T15:57:50;24.38;;;22.15;;
46339;SDS011;47273;49.274;8.708;2022-10-23T16:00:16;31.30;;;22.40;;
46339;SDS011;47273;49.274;8.708;2022-10-23T16:02:42;23.98;;;21.90;;
46339;SDS011;47273;49.274;8.708;2022-10-23T16:05:09;24.02;;;22.10;;
46339;SDS011;47273;49.274;8.708;2022-10-23T16:07:34;23.83;;;21.98;;
46339;SDS011;47273;49.274;8.708;2022-10-23T16:10:00;24.65;;;22.50;;
46339;SDS011;47273;49.274;8.708;2022-10-23T16:12:26;25.42;;;23.25;;
46339;SDS011;47273;49.274;8.708;2022-10-23T16:14:52;24.30;;;22.35;;
46339;SDS011;47273;49.274;8.708;2022-10-23T16:17:18;29.45;;;23.70;;
46339;SDS011;47273;49.274;8.708;2022-10-23T16:19:44;25.23;;;23.13;;
46339;SDS011;47273;49.274;8.708;2022-10-23T16:22:10;24.27;;;22.15;;
46339;SDS011;47273;49.274;8.708;2022-10-23T16:24:36;24.23;;;22.13;;
46339;SDS011;47273;49.274;8.708;2022-10-23T16:27:02;23.27;;;21.38;;
46339;SDS011;47273;49.274;8.708;2022-10-23T16:29:27;22.92;;;21.13;;
46339;SDS011;47273;49.274;8.708;2022-10-23T16:31:54;23.38;;;21.58;;
46339;SDS011;47273;49.274;8.708;2022-10-23T16:34:21;23.73;;;21.77;;
46339;SDS011;47273;49.274;8.708;2022-10-23T16:36:47;23.20;;;21.30;;
46339;SDS011;47273;49.274;8.708;2022-10-23T16:39:13;21.70;;;19.90;;
46339;SDS011;47273;49.274;8.708;2022-10-23T16:41:40;22.52;;;20.45;;
46339;SDS011;47273;49.274;8.708;2022-10-23T16:44:05;22.48;;;20.33;;
46339;SDS011;47273;49.274;8.708;2022-10-23T16:46:31;22.63;;;20.48;;
46339;SDS011;47273;49.274;8.708;2022-10-23T16:48:58;21.42;;;19.63;;
46339;SDS011;47273;49.274;8.708;2022-10-23T16:51:25;21.42;;;19.63;;
46339;SDS011;47273;49.274;8.708;2022-10-23T16:53:51;21.08;;;19.08;;
46339;SDS011;47273;49.274;8.708;2022-10-23T16:56:21;23.60;;;21.60;;
46339;SDS011;47273;49.274;8.708;2022-10-23T16:58:48;21.17;;;19.52;;
46339;SDS011;47273;49.274;8.708;2022-10-23T17:01:18;21.52;;;19.83;;
46339;SDS011;47273;49.274;8.708;2022-10-23T17:03:46;21.98;;;20.17;;
46339;SDS011;47273;49.274;8.708;2022-10-23T17:06:15;22.65;;;20.90;;
46339;SDS011;47273;49.274;8.708;2022-10-23T17:08:43;22.50;;;20.70;;
46339;SDS011;47273;49.274;8.708;2022-10-23T17:11:11;22.77;;;20.67;;
46339;SDS011;47273;49.274;8.708;2022-10-23T17:13:40;22.60;;;20.80;;
46339;SDS011;47273;49.274;8.708;2022-10-23T17:18:43;22.50;;;20.55;;
46339;SDS011;47273;49.274;8.708;2022-10-23T17:21:09;23.00;;;21.10;;
46339;SDS011;47273;49.274;8.708;2022-10-23T17:23:39;22.02;;;20.10;;
46339;SDS011;47273;49.274;8.708;2022-10-23T17:26:06;21.95;;;20.15;;
46339;SDS011;47273;49.274;8.708;2022-10-23T17:28:34;22.15;;;20.55;;
46339;SDS011;47273;49.274;8.708;2022-10-23T17:31:11;22.38;;;20.65;;
46339;SDS011;47273;49.274;8.708;2022-10-23T17:33:39;22.60;;;20.70;;
46339;SDS011;47273;49.274;8.708;2022-10-23T17:36:06;23.23;;;21.17;;
46339;SDS011;47273;49.274;8.708;2022-10-23T17:38:33;23.27;;;21.45;;
46339;SDS011;47273;49.274;8.708;2022-10-23T17:41:00;21.83;;;20.08;;
46339;SDS011;47273;49.274;8.708;2022-10-23T17:43:26;24.02;;;22.08;;
46339;SDS011;47273;49.274;8.708;2022-10-23T17:45:51;23.58;;;21.58;;
46339;SDS011;47273;49.274;8.708;2022-10-23T17:48:17;23.67;;;21.27;;
46339;SDS011;47273;49.274;8.708;2022-10-23T17:50:42;23.13;;;21.23;;
46339;SDS011;47273;49.274;8.708;2022-10-23T17:53:08;23.65;;;21.10;;
46339;SDS011;47273;49.274;8.708;2022-10-23T17:55:37;23.20;;;21.00;;
46339;SDS011;47273;49.274;8.708;2022-10-23T17:58:04;23.33;;;21.20;;
46339;SDS011;47273;49.274;8.708;2022-10-23T18:00:30;23.23;;;21.33;;
46339;SDS011;47273;49.274;8.708;2022-10-23T18:02:56;23.92;;;21.70;;
46339;SDS011;47273;49.274;8.708;2022-10-23T18:05:21;23.77;;;21.67;;
46339;SDS011;47273;49.274;8.708;2022-10-23T18:07:47;24.00;;;22.00;;
46339;SDS011;47273;49.274;8.708;2022-10-23T18:10:16;25.95;;;22.85;;
46339;SDS011;47273;49.274;8.708;2022-10-23T18:12:41;24.88;;;22.73;;
46339;SDS011;47273;49.274;8.708;2022-10-23T18:15:07;26.65;;;23.92;;
46339;SDS011;47273;49.274;8.708;2022-10-23T18:17:33;25.00;;;22.88;;
46339;SDS011;47273;49.274;8.708;2022-10-23T18:19:59;27.50;;;24.20;;
46339;SDS011;47273;49.274;8.708;2022-10-23T18:22:24;25.23;;;22.63;;
46339;SDS011;47273;49.274;8.708;2022-10-23T18:24:50;26.17;;;23.48;;
46339;SDS011;47273;49.274;8.708;2022-10-23T18:27:16;24.92;;;22.77;;
46339;SDS011;47273;49.274;8.708;2022-10-23T18:29:41;24.63;;;22.42;;
46339;SDS011;47273;49.274;8.708;2022-10-23T18:32:08;24.63;;;22.63;;
46339;SDS011;47273;49.274;8.708;2022-10-23T18:34:34;25.35;;;22.92;;
46339;SDS011;47273;49.274;8.708;2022-10-23T18:36:59;24.95;;;22.42;;
46339;SDS011;47273;49.274;8.708;2022-10-23T18:39:25;25.38;;;23.02;;
46339;SDS011;47273;49.274;8.708;2022-10-23T18:41:54;25.92;;;23.27;;
46339;SDS011;47273;49.274;8.708;2022-10-23T18:44:21;24.75;;;22.45;;
46339;SDS011;47273;49.274;8.708;2022-10-23T18:46:48;25.38;;;22.73;;
46339;SDS011;47273;49.274;8.708;2022-10-23T18:49:15;26.15;;;23.65;;
46339;SDS011;47273;49.274;8.708;2022-10-23T18:51:42;25.77;;;23.15;;
46339;SDS011;47273;49.274;8.708;2022-10-23T18:54:11;25.55;;;23.13;;
46339;SDS011;47273;49.274;8.708;2022-10-23T18:56:38;25.65;;;23.02;;
46339;SDS011;47273;49.274;8.708;2022-10-23T18:59:05;25.90;;;23.60;;
46339;SDS011;47273;49.274;8.708;2022-10-23T19:01:35;26.63;;;23.98;;
46339;SDS011;47273;49.274;8.708;2022-10-23T19:04:01;25.52;;;23.23;;
46339;SDS011;47273;49.274;8.708;2022-10-23T19:06:29;28.17;;;23.85;;
46339;SDS011;47273;49.274;8.708;2022-10-23T19:08:56;25.48;;;22.88;;
46339;SDS011;47273;49.274;8.708;2022-10-23T19:11:24;24.42;;;22.02;;
46339;SDS011;47273;49.274;8.708;2022-10-23T19:13:51;24.65;;;22.02;;
46339;SDS011;47273;49.274;8.708;2022-10-23T19:16:23;24.27;;;22.02;;
46339;SDS011;47273;49.274;8.708;2022-10-23T19:18:59;24.33;;;22.33;;
46339;SDS011;47273;49.274;8.708;2022-10-23T19:21:35;27.23;;;23.23;;
46339;SDS011;47273;49.274;8.708;2022-10-23T19:24:03;26.65;;;24.23;;
46339;SDS011;47273;49.274;8.708;2022-10-23T19:26:33;27.30;;;23.45;;
46339;SDS011;47273;49.274;8.708;2022-10-23T19:29:00;24.70;;;22.70;;
46339;SDS011;47273;49.274;8.708;2022-10-23T19:31:27;26.30;;;23.55;;
46339;SDS011;47273;49.274;8.708;2022-10-23T19:33:52;28.33;;;25.42;;
46339;SDS011;47273;49.274;8.708;2022-10-23T19:36:18;28.52;;;23.50;;
46339;SDS011;47273;49.274;8.708;2022-10-23T19:38:44;25.73;;;23.35;;
46339;SDS011;47273;49.274;8.708;2022-10-23T19:41:10;24.92;;;22.80;;
46339;SDS011;47273;49.274;8.708;2022-10-23T19:43:35;25.42;;;22.95;;
46339;SDS011;47273;49.274;8.708;2022-10-23T19:46:06;25.92;;;23.58;;
46339;SDS011;47273;49.274;8.708;2022-10-23T19:48:31;25.25;;;22.95;;
46339;SDS011;47273;49.274;8.708;2022-10-23T19:50:57;26.77;;;24.23;;
46339;SDS011;47273;49.274;8.708;2022-10-23T19:53:23;26.60;;;24.42;;
46339;SDS011;47273;49.274;8.708;2022-10-23T19:55:48;27.58;;;24.90;;
46339;SDS011;47273;49.274;8.708;2022-10-23T19:58:14;26.50;;;24.10;;
46339;SDS011;47273;49.274;8.708;2022-10-23T20:00:40;27.55;;;24.95;;
46339;SDS011;47273;49.274;8.708;2022-10-23T20:03:06;26.60;;;23.98;;
46339;SDS011;47273;49.274;8.708;2022-10-23T20:05:32;26.98;;;24.85;;
46339;SDS011;47273;49.274;8.708;2022-10-23T20:07:57;26.42;;;24.17;;
46339;SDS011;47273;49.274;8.708;2022-10-23T20:10:23;26.08;;;23.60;;
46339;SDS011;47273;49.274;8.708;2022-10-23T20:12:49;26.40;;;24.08;;
46339;SDS011;47273;49.274;8.708;2022-10-23T20:15:16;26.80;;;24.02;;
46339;SDS011;47273;49.274;8.708;2022-10-23T20:17:41;25.73;;;23.52;;
46339;SDS011;47273;49.274;8.708;2022-10-23T20:20:07;26.20;;;23.58;;
46339;SDS011;47273;49.274;8.708;2022-10-23T20:22:33;28.77;;;23.73;;